createdAt,value
2017-12-28T00:00:37.119Z,19.7
2017-12-28T00:01:38.458Z,19.9
2017-12-28T00:02:39.776Z,19.8
2017-12-28T00:03:41.116Z,19.8
2017-12-28T00:04:42.174Z,19.8
2017-12-28T00:05:44.069Z,19.9
2017-12-28T00:06:45.666Z,19.9
2017-12-28T00:07:46.997Z,19.8
2017-12-28T00:08:48.897Z,19.9
2017-12-28T00:09:50.237Z,19.8
2017-12-28T00:10:51.853Z,19.8
2017-12-28T00:11:53.471Z,19.8
2017-12-28T00:12:55.367Z,19.8
2017-12-28T00:13:56.963Z,19.8
2017-12-28T00:14:58.284Z,19.8
2017-12-28T00:15:59.622Z,19.8
2017-12-28T00:17:01.516Z,19.9
2017-12-28T00:18:02.833Z,19.8
2017-12-28T00:19:04.451Z,19.8
2017-12-28T00:20:06.104Z,19.9
2017-12-28T00:21:07.702Z,19.8
2017-12-28T00:22:08.747Z,19.8
2017-12-28T00:23:10.079Z,19.8
2017-12-28T00:24:11.974Z,19.8
2017-12-28T00:25:13.571Z,19.8
2017-12-28T00:26:15.467Z,19.8
2017-12-28T00:27:17.104Z,19.9
2017-12-28T00:28:18.988Z,19.9
2017-12-28T00:29:20.604Z,19.9
2017-12-28T00:30:22.215Z,19.8
2017-12-28T00:31:23.833Z,19.8
2017-12-28T00:32:25.451Z,19.7
2017-12-28T00:33:27.062Z,19.8
2017-12-28T00:34:28.956Z,19.7
2017-12-28T00:35:30.000Z,19.8
2017-12-28T00:36:31.618Z,19.8
2017-12-28T00:37:33.513Z,19.8
2017-12-28T00:38:35.130Z,19.8
2017-12-28T00:39:36.748Z,19.9
2017-12-28T00:40:38.366Z,19.7
2017-12-28T00:41:39.408Z,19.9
2017-12-28T00:42:41.302Z,19.8
2017-12-28T00:43:42.638Z,19.9
2017-12-28T00:44:43.979Z,19.8
2017-12-28T00:45:45.595Z,19.8
2017-12-28T00:46:47.490Z,19.8
2017-12-28T00:47:48.831Z,19.8
2017-12-28T00:48:50.426Z,19.9
2017-12-28T00:49:52.344Z,19.8
2017-12-28T00:50:53.965Z,19.8
2017-12-28T00:51:55.582Z,19.8
2017-12-28T00:52:56.900Z,19.9
2017-12-28T00:53:58.516Z,19.7
2017-12-28T00:55:00.133Z,19.7
2017-12-28T00:56:02.027Z,19.8
2017-12-28T00:57:03.619Z,19.8
2017-12-28T00:58:04.961Z,19.7
2017-12-28T00:59:06.283Z,19.8
2017-12-28T01:00:07.602Z,19.8
2017-12-28T01:01:08.940Z,19.8
2017-12-28T01:02:09.980Z,19.8
2017-12-28T01:03:11.875Z,19.9
2017-12-28T01:04:13.491Z,19.8
2017-12-28T01:05:15.109Z,19.8
2017-12-28T01:06:17.032Z,19.8
2017-12-28T01:07:18.372Z,19.9
2017-12-28T01:08:20.271Z,19.8
2017-12-28T01:09:22.160Z,19.9
2017-12-28T01:10:24.053Z,19.9
2017-12-28T01:11:25.664Z,19.9
2017-12-28T01:12:26.992Z,19.8
2017-12-28T01:13:28.585Z,19.9
2017-12-28T01:14:29.633Z,19.8
2017-12-28T01:15:31.230Z,19.9
2017-12-28T01:16:32.569Z,19.8
2017-12-28T01:17:33.889Z,19.8
2017-12-28T01:18:35.503Z,19.9
2017-12-28T01:19:37.424Z,19.7
2017-12-28T01:20:38.188Z,19.9
2017-12-28T01:21:39.804Z,19.9
2017-12-28T01:22:40.865Z,19.8
2017-12-28T01:23:42.480Z,19.9
2017-12-28T01:24:44.382Z,19.9
2017-12-28T01:25:45.700Z,19.8
2017-12-28T01:26:47.316Z,19.9
2017-12-28T01:27:48.634Z,19.7
2017-12-28T01:28:49.954Z,19.9
2017-12-28T01:29:51.847Z,19.9
2017-12-28T01:30:53.463Z,19.7
2017-12-28T01:31:55.084Z,19.8
2017-12-28T01:32:56.683Z,19.8
2017-12-28T01:33:57.999Z,19.9
2017-12-28T01:34:59.613Z,19.9
2017-12-28T01:36:01.213Z,19.9
2017-12-28T01:37:02.551Z,19.9
2017-12-28T01:38:04.488Z,19.8
2017-12-28T01:39:06.104Z,19.8
2017-12-28T01:40:07.148Z,19.8
2017-12-28T01:41:08.767Z,19.8
2017-12-28T01:42:10.658Z,19.8
2017-12-28T01:43:12.552Z,19.8
2017-12-28T01:44:14.170Z,19.9
2017-12-28T01:45:15.786Z,19.9
2017-12-28T01:46:17.403Z,19.7
2017-12-28T01:47:18.720Z,19.8
2017-12-28T01:48:20.337Z,19.8
2017-12-28T01:49:21.932Z,19.8
2017-12-28T01:50:23.550Z,19.8
2017-12-28T01:51:24.908Z,19.8
2017-12-28T01:52:26.287Z,19.8
2017-12-28T01:53:27.885Z,19.8
2017-12-28T01:54:29.782Z,19.8
2017-12-28T01:55:31.104Z,19.8
2017-12-28T01:56:32.152Z,19.7
2017-12-28T01:57:33.757Z,19.8
2017-12-28T01:58:35.379Z,19.8
2017-12-28T01:59:36.999Z,19.8
2017-12-28T02:00:38.614Z,19.8
2017-12-28T02:01:40.509Z,19.8
2017-12-28T02:02:42.136Z,19.8
2017-12-28T02:03:44.032Z,19.8
2017-12-28T02:04:45.653Z,19.7
2017-12-28T02:05:46.993Z,19.8
2017-12-28T02:06:48.611Z,19.7
2017-12-28T02:07:50.231Z,19.8
2017-12-28T02:08:52.127Z,19.8
2017-12-28T02:09:53.725Z,19.8
2017-12-28T02:10:55.039Z,19.7
2017-12-28T02:11:56.382Z,19.8
2017-12-28T02:12:58.277Z,19.7
2017-12-28T02:13:59.896Z,19.7
2017-12-28T02:15:01.517Z,19.8
2017-12-28T02:16:03.408Z,19.8
2017-12-28T02:17:05.027Z,19.8
2017-12-28T02:18:06.067Z,19.8
2017-12-28T02:19:07.682Z,19.8
2017-12-28T02:20:09.021Z,19.8
2017-12-28T02:21:10.641Z,19.8
2017-12-28T02:22:12.537Z,19.8
2017-12-28T02:23:14.430Z,19.8
2017-12-28T02:24:16.048Z,19.7
2017-12-28T02:25:17.944Z,19.9
2017-12-28T02:26:19.837Z,19.8
2017-12-28T02:27:21.457Z,19.9
2017-12-28T02:28:23.079Z,19.7
2017-12-28T02:29:25.014Z,19.7
2017-12-28T02:30:26.334Z,19.7
2017-12-28T02:31:27.934Z,19.7
2017-12-28T02:32:29.255Z,19.7
2017-12-28T02:33:30.873Z,19.7
2017-12-28T02:34:32.225Z,19.8
2017-12-28T02:35:33.842Z,19.7
2017-12-28T02:36:35.739Z,19.7
2017-12-28T02:37:36.776Z,19.7
2017-12-28T02:38:38.403Z,19.8
2017-12-28T02:39:40.293Z,19.8
2017-12-28T02:40:41.612Z,19.8
2017-12-28T02:41:42.959Z,19.8
2017-12-28T02:42:44.282Z,19.7
2017-12-28T02:43:45.899Z,19.7
2017-12-28T02:44:47.794Z,19.7
2017-12-28T02:45:49.687Z,19.7
2017-12-28T02:46:51.309Z,19.8
2017-12-28T02:47:52.930Z,19.8
2017-12-28T02:48:54.546Z,19.7
2017-12-28T02:49:56.442Z,19.7
2017-12-28T02:50:57.762Z,19.8
2017-12-28T02:51:59.382Z,19.7
2017-12-28T02:53:01.278Z,19.7
2017-12-28T02:54:03.186Z,19.7
2017-12-28T02:55:04.496Z,19.7
2017-12-28T02:56:05.840Z,19.7
2017-12-28T02:57:07.766Z,19.7
2017-12-28T02:58:09.103Z,19.7
2017-12-28T02:59:10.998Z,19.7
2017-12-28T03:00:12.317Z,19.7
2017-12-28T03:01:13.635Z,19.7
2017-12-28T03:02:15.253Z,19.7
2017-12-28T03:03:16.870Z,19.7
2017-12-28T03:04:18.490Z,19.7
2017-12-28T03:05:20.087Z,19.7
2017-12-28T03:06:21.402Z,19.7
2017-12-28T03:07:23.021Z,19.7
2017-12-28T03:08:24.067Z,19.7
2017-12-28T03:09:25.406Z,19.7
2017-12-28T03:10:26.744Z,19.7
2017-12-28T03:11:28.639Z,19.7
2017-12-28T03:12:30.237Z,19.7
2017-12-28T03:13:31.295Z,19.7
2017-12-28T03:14:33.174Z,19.8
2017-12-28T03:15:34.493Z,19.7
2017-12-28T03:16:36.110Z,19.7
2017-12-28T03:17:38.003Z,19.7
2017-12-28T03:18:39.658Z,19.7
2017-12-28T03:19:41.553Z,19.8
2017-12-28T03:20:42.874Z,19.6
2017-12-28T03:21:44.490Z,19.7
2017-12-28T03:22:46.108Z,19.7
2017-12-28T03:23:47.731Z,19.7
2017-12-28T03:24:49.351Z,19.7
2017-12-28T03:25:50.695Z,19.7
2017-12-28T03:26:52.037Z,19.7
2017-12-28T03:27:53.631Z,19.7
2017-12-28T03:28:55.249Z,19.7
2017-12-28T03:29:56.867Z,19.7
2017-12-28T03:30:58.500Z,19.8
2017-12-28T03:32:00.397Z,19.7
2017-12-28T03:33:01.994Z,19.7
2017-12-28T03:34:03.612Z,19.8
2017-12-28T03:35:04.934Z,19.7
2017-12-28T03:36:05.975Z,19.7
2017-12-28T03:37:07.572Z,19.8
2017-12-28T03:38:08.911Z,19.7
2017-12-28T03:39:10.232Z,19.8
2017-12-28T03:40:11.835Z,19.7
2017-12-28T03:41:13.723Z,19.7
2017-12-28T03:42:14.789Z,19.7
2017-12-28T03:43:16.392Z,19.7
2017-12-28T03:44:17.732Z,19.7
2017-12-28T03:45:19.329Z,19.7
2017-12-28T03:46:20.368Z,19.7
2017-12-28T03:47:22.264Z,19.7
2017-12-28T03:48:23.583Z,19.7
2017-12-28T03:49:25.478Z,19.8
2017-12-28T03:50:27.095Z,19.7
2017-12-28T03:51:28.714Z,19.8
2017-12-28T03:52:30.031Z,19.7
2017-12-28T03:53:31.352Z,19.7
2017-12-28T03:54:33.297Z,19.7
2017-12-28T03:55:34.635Z,19.7
2017-12-28T03:56:36.530Z,19.7
2017-12-28T03:57:37.594Z,19.8
2017-12-28T03:58:39.490Z,19.8
2017-12-28T03:59:41.088Z,19.7
2017-12-28T04:00:42.711Z,19.7
2017-12-28T04:01:44.330Z,19.7
2017-12-28T04:02:45.374Z,19.7
2017-12-28T04:03:46.988Z,19.7
2017-12-28T04:04:48.586Z,19.7
2017-12-28T04:05:50.480Z,19.7
2017-12-28T04:06:52.401Z,19.7
2017-12-28T04:07:54.298Z,19.7
2017-12-28T04:08:55.896Z,19.7
2017-12-28T04:09:57.793Z,19.7
2017-12-28T04:10:59.115Z,19.7
2017-12-28T04:12:00.155Z,19.8
2017-12-28T04:13:01.199Z,19.7
2017-12-28T04:14:02.540Z,19.8
2017-12-28T04:15:04.436Z,19.8
2017-12-28T04:16:05.775Z,19.7
2017-12-28T04:17:07.672Z,19.7
2017-12-28T04:18:09.306Z,19.7
2017-12-28T04:19:10.349Z,19.7
2017-12-28T04:20:11.967Z,19.7
2017-12-28T04:21:13.859Z,19.8
2017-12-28T04:22:15.182Z,19.8
2017-12-28T04:23:16.798Z,19.7
2017-12-28T04:24:18.432Z,19.7
2017-12-28T04:25:20.326Z,19.7
2017-12-28T04:26:21.646Z,19.7
2017-12-28T04:27:22.968Z,19.7
2017-12-28T04:28:24.586Z,19.7
2017-12-28T04:29:26.481Z,19.7
2017-12-28T04:30:27.804Z,19.7
2017-12-28T04:31:28.844Z,19.7
2017-12-28T04:32:30.465Z,19.7
2017-12-28T04:33:32.083Z,19.7
2017-12-28T04:34:33.982Z,19.7
2017-12-28T04:35:35.300Z,19.7
2017-12-28T04:36:37.194Z,19.7
2017-12-28T04:37:38.790Z,19.7
2017-12-28T04:38:40.408Z,19.7
2017-12-28T04:39:41.726Z,19.7
2017-12-28T04:40:43.046Z,19.7
2017-12-28T04:41:44.663Z,19.7
2017-12-28T04:42:46.559Z,19.7
2017-12-28T04:43:48.455Z,19.7
2017-12-28T04:44:50.351Z,19.7
2017-12-28T04:45:51.969Z,19.7
2017-12-28T04:46:53.873Z,19.7
2017-12-28T04:47:55.490Z,19.7
2017-12-28T04:48:57.088Z,19.7
2017-12-28T04:49:58.431Z,19.7
2017-12-28T04:51:00.055Z,19.7
2017-12-28T04:52:01.947Z,19.7
2017-12-28T04:53:03.564Z,19.7
2017-12-28T04:54:05.457Z,19.7
2017-12-28T04:55:07.056Z,19.7
2017-12-28T04:56:08.399Z,19.7
2017-12-28T04:57:10.295Z,19.7
2017-12-28T04:58:11.890Z,19.7
2017-12-28T04:59:13.507Z,19.8
2017-12-28T05:00:14.826Z,19.7
2017-12-28T05:01:16.454Z,19.7
2017-12-28T05:02:17.772Z,19.7
2017-12-28T05:03:19.667Z,19.7
2017-12-28T05:04:21.014Z,19.8
2017-12-28T05:05:22.333Z,19.7
2017-12-28T05:06:23.651Z,19.6
2017-12-28T05:07:24.992Z,19.8
2017-12-28T05:08:26.888Z,19.6
2017-12-28T05:09:28.782Z,19.8
2017-12-28T05:10:30.430Z,19.8
2017-12-28T05:11:32.049Z,19.8
2017-12-28T05:12:33.668Z,19.7
2017-12-28T05:13:35.285Z,19.7
2017-12-28T05:14:37.181Z,19.7
2017-12-28T05:15:38.246Z,19.7
2017-12-28T05:16:39.591Z,19.7
2017-12-28T05:17:41.211Z,19.8
2017-12-28T05:18:42.807Z,19.7
2017-12-28T05:19:44.431Z,19.7
2017-12-28T05:20:46.367Z,19.7
2017-12-28T05:21:48.266Z,19.8
2017-12-28T05:22:49.864Z,19.8
2017-12-28T05:23:51.204Z,19.7
2017-12-28T05:24:52.526Z,19.7
2017-12-28T05:25:53.866Z,19.7
2017-12-28T05:26:55.188Z,19.7
2017-12-28T05:27:56.809Z,19.7
2017-12-28T05:28:58.128Z,19.8
2017-12-28T05:29:59.187Z,19.8
2017-12-28T05:31:00.807Z,19.7
2017-12-28T05:32:02.129Z,19.8
2017-12-28T05:33:03.722Z,19.8
2017-12-28T05:34:05.342Z,19.7
2017-12-28T05:35:06.660Z,19.8
2017-12-28T05:36:08.257Z,19.7
2017-12-28T05:37:09.878Z,19.7
2017-12-28T05:38:11.198Z,19.8
2017-12-28T05:39:12.813Z,19.8
2017-12-28T05:40:14.137Z,19.8
2017-12-28T05:41:16.030Z,19.7
2017-12-28T05:42:17.648Z,19.7
2017-12-28T05:43:18.966Z,19.7
2017-12-28T05:44:20.583Z,19.7
2017-12-28T05:45:22.181Z,19.7
2017-12-28T05:46:23.521Z,19.9
2017-12-28T05:47:25.140Z,19.7
2017-12-28T05:48:26.485Z,19.8
2017-12-28T05:49:27.825Z,19.8
2017-12-28T05:50:29.444Z,19.9
2017-12-28T05:51:31.337Z,19.8
2017-12-28T05:52:32.381Z,19.8
2017-12-28T05:53:33.722Z,19.8
2017-12-28T05:54:34.799Z,19.8
2017-12-28T05:55:36.434Z,19.8
2017-12-28T05:56:38.030Z,19.7
2017-12-28T05:57:39.094Z,19.7
2017-12-28T05:58:40.738Z,19.8
2017-12-28T05:59:42.086Z,19.7
2017-12-28T06:00:43.700Z,19.8
2017-12-28T06:01:45.019Z,19.9
2017-12-28T06:02:46.639Z,19.7
2017-12-28T06:03:47.681Z,19.7
2017-12-28T06:04:49.296Z,19.7
2017-12-28T06:05:50.619Z,19.9
2017-12-28T06:06:52.235Z,19.7
2017-12-28T06:07:53.833Z,19.6
2017-12-28T06:08:55.154Z,19.8
2017-12-28T06:09:57.050Z,19.8
2017-12-28T06:10:58.670Z,19.7
2017-12-28T06:12:00.563Z,19.8
2017-12-28T06:13:01.909Z,19.8
2017-12-28T06:14:03.562Z,19.8
2017-12-28T06:15:05.162Z,19.8
2017-12-28T06:16:06.776Z,19.7
2017-12-28T06:17:08.396Z,19.7
2017-12-28T06:18:10.011Z,19.8
2017-12-28T06:19:11.907Z,19.8
2017-12-28T06:20:13.526Z,19.8
2017-12-28T06:21:15.157Z,19.8
2017-12-28T06:22:16.753Z,19.8
2017-12-28T06:23:18.372Z,19.7
2017-12-28T06:24:20.266Z,19.7
2017-12-28T06:25:21.884Z,19.8
2017-12-28T06:26:23.483Z,19.8
2017-12-28T06:27:25.103Z,19.8
2017-12-28T06:28:26.142Z,19.8
2017-12-28T06:29:27.760Z,19.8
2017-12-28T06:30:29.656Z,19.7
2017-12-28T06:31:31.553Z,19.7
2017-12-28T06:32:33.448Z,19.7
2017-12-28T06:33:35.342Z,19.7
2017-12-28T06:34:36.961Z,19.8
2017-12-28T06:35:38.280Z,19.7
2017-12-28T06:36:39.598Z,19.7
2017-12-28T06:37:41.215Z,19.8
2017-12-28T06:38:42.834Z,19.8
2017-12-28T06:39:44.730Z,19.9
2017-12-28T06:40:46.071Z,19.8
2017-12-28T06:41:47.116Z,19.7
2017-12-28T06:42:48.732Z,19.8
2017-12-28T06:43:50.628Z,19.8
2017-12-28T06:44:51.667Z,19.8
2017-12-28T06:45:53.615Z,19.8
2017-12-28T06:46:55.217Z,19.7
2017-12-28T06:47:57.112Z,19.8
2017-12-28T06:48:58.711Z,19.7
2017-12-28T06:50:00.350Z,19.8
2017-12-28T06:51:01.951Z,19.7
2017-12-28T06:52:03.567Z,19.8
2017-12-28T06:53:05.222Z,19.7
2017-12-28T06:54:06.892Z,19.8
2017-12-28T06:55:08.224Z,19.8
2017-12-28T06:56:09.841Z,19.8
2017-12-28T06:57:11.737Z,19.7
2017-12-28T06:58:13.361Z,19.8
2017-12-28T06:59:14.979Z,19.8
2017-12-28T07:00:16.320Z,19.7
2017-12-28T07:01:17.940Z,19.7
2017-12-28T07:02:19.559Z,19.7
2017-12-28T07:03:21.155Z,19.8
2017-12-28T07:04:23.049Z,19.7
2017-12-28T07:05:24.668Z,19.8
2017-12-28T07:06:26.010Z,19.7
2017-12-28T07:07:27.905Z,19.7
2017-12-28T07:08:29.247Z,19.9
2017-12-28T07:09:31.145Z,19.7
2017-12-28T07:10:33.042Z,19.8
2017-12-28T07:11:34.939Z,19.7
2017-12-28T07:12:36.838Z,19.8
2017-12-28T07:13:38.162Z,19.7
2017-12-28T07:14:39.784Z,19.8
2017-12-28T07:15:41.403Z,19.7
2017-12-28T07:16:43.301Z,19.7
2017-12-28T07:17:44.925Z,19.8
2017-12-28T07:18:46.550Z,19.7
2017-12-28T07:19:47.891Z,19.8
2017-12-28T07:20:49.528Z,19.7
2017-12-28T07:21:51.151Z,19.7
2017-12-28T07:22:52.471Z,19.7
2017-12-28T07:23:53.812Z,19.7
2017-12-28T07:24:55.710Z,19.8
2017-12-28T07:25:57.336Z,19.7
2017-12-28T07:26:58.955Z,19.7
2017-12-28T07:28:00.856Z,19.7
2017-12-28T07:29:02.803Z,19.7
2017-12-28T07:30:04.701Z,19.7
2017-12-28T07:31:06.628Z,19.7
2017-12-28T07:32:07.967Z,19.7
2017-12-28T07:33:09.632Z,19.8
2017-12-28T07:34:11.527Z,19.7
2017-12-28T07:35:13.144Z,19.7
2017-12-28T07:36:14.768Z,19.8
2017-12-28T07:37:16.112Z,19.8
2017-12-28T07:38:18.011Z,19.8
2017-12-28T07:39:19.910Z,19.8
2017-12-28T07:40:21.809Z,19.7
2017-12-28T07:41:22.868Z,19.8
2017-12-28T07:42:24.487Z,19.8
2017-12-28T07:43:26.106Z,19.7
2017-12-28T07:44:28.012Z,19.8
2017-12-28T07:45:29.904Z,19.7
2017-12-28T07:46:31.227Z,19.8
2017-12-28T07:47:32.822Z,19.8
2017-12-28T07:48:34.444Z,19.8
2017-12-28T07:49:36.060Z,19.8
2017-12-28T07:50:37.104Z,19.6
2017-12-28T07:51:39.001Z,19.7
2017-12-28T07:52:40.045Z,19.7
2017-12-28T07:53:41.369Z,19.7
2017-12-28T07:54:42.413Z,19.7
2017-12-28T07:55:43.756Z,19.8
2017-12-28T07:56:45.076Z,19.6
2017-12-28T07:57:46.415Z,19.7
2017-12-28T07:58:47.491Z,19.8
2017-12-28T07:59:49.377Z,19.7
2017-12-28T08:00:51.004Z,19.8
2017-12-28T08:01:52.622Z,19.7
2017-12-28T08:02:54.242Z,19.7
2017-12-28T08:03:55.564Z,19.8
2017-12-28T08:04:57.189Z,19.7
2017-12-28T08:05:58.806Z,19.8
2017-12-28T08:07:00.426Z,19.7
2017-12-28T08:08:02.325Z,19.8
2017-12-28T08:09:03.970Z,19.8
2017-12-28T08:10:05.583Z,19.8
2017-12-28T08:11:06.645Z,19.8
2017-12-28T08:12:08.242Z,19.8
2017-12-28T08:13:09.582Z,19.8
2017-12-28T08:14:11.486Z,19.8
2017-12-28T08:15:13.087Z,19.8
2017-12-28T08:16:14.713Z,19.8
2017-12-28T08:17:16.034Z,19.7
2017-12-28T08:18:17.081Z,19.8
2017-12-28T08:19:18.427Z,19.8
2017-12-28T08:20:19.770Z,19.7
2017-12-28T08:21:21.666Z,19.8
2017-12-28T08:22:23.565Z,19.8
2017-12-28T08:23:24.625Z,19.8
2017-12-28T08:24:26.526Z,19.7
2017-12-28T08:25:27.864Z,19.7
2017-12-28T08:26:29.207Z,19.8
2017-12-28T08:27:30.532Z,19.8
2017-12-28T08:28:31.585Z,19.8
2017-12-28T08:29:32.629Z,19.8
2017-12-28T08:30:34.226Z,19.8
2017-12-28T08:31:35.570Z,19.8
2017-12-28T08:32:36.892Z,19.8
2017-12-28T08:33:38.214Z,19.8
2017-12-28T08:34:39.531Z,19.7
2017-12-28T08:35:40.872Z,19.8
2017-12-28T08:36:42.211Z,19.8
2017-12-28T08:37:43.552Z,19.8
2017-12-28T08:38:45.448Z,19.8
2017-12-28T08:39:47.068Z,19.7
2017-12-28T08:40:48.666Z,19.8
2017-12-28T08:41:50.559Z,19.8
2017-12-28T08:42:52.158Z,19.7
2017-12-28T08:43:53.776Z,19.9
2017-12-28T08:44:55.118Z,19.8
2017-12-28T08:45:56.443Z,19.8
2017-12-28T08:46:58.063Z,19.7
2017-12-28T08:47:59.388Z,19.8
2017-12-28T08:49:01.007Z,19.9
2017-12-28T08:50:02.904Z,19.8
2017-12-28T08:51:03.977Z,19.8
2017-12-28T08:52:05.599Z,19.8
2017-12-28T08:53:06.941Z,19.8
2017-12-28T08:54:08.842Z,19.8
2017-12-28T08:55:10.737Z,19.8
2017-12-28T08:56:12.059Z,19.8
2017-12-28T08:57:13.683Z,19.9
2017-12-28T08:58:15.299Z,19.9
2017-12-28T08:59:16.370Z,19.8
2017-12-28T09:00:17.989Z,19.8
2017-12-28T09:01:19.308Z,19.7
2017-12-28T09:02:20.906Z,19.8
2017-12-28T09:03:22.228Z,19.9
2017-12-28T09:04:23.548Z,19.7
2017-12-28T09:05:24.868Z,19.9
2017-12-28T09:06:26.467Z,19.9
2017-12-28T09:07:27.786Z,19.8
2017-12-28T09:08:29.411Z,19.9
2017-12-28T09:09:31.006Z,19.9
2017-12-28T09:10:32.328Z,19.9
2017-12-28T09:11:33.649Z,19.9
2017-12-28T09:12:35.268Z,19.9
2017-12-28T09:13:37.169Z,19.9
2017-12-28T09:14:38.790Z,19.9
2017-12-28T09:15:39.852Z,19.9
2017-12-28T09:16:41.473Z,19.9
2017-12-28T09:17:43.094Z,19.9
2017-12-28T09:18:44.415Z,19.9
2017-12-28T09:19:45.736Z,19.9
2017-12-28T09:20:47.081Z,19.9
2017-12-28T09:21:48.733Z,19.9
2017-12-28T09:22:49.780Z,19.8
2017-12-28T09:23:51.372Z,19.8
2017-12-28T09:24:52.992Z,19.9
2017-12-28T09:25:54.336Z,19.9
2017-12-28T09:26:55.688Z,19.9
2017-12-28T09:27:57.578Z,19.9
2017-12-28T09:28:59.198Z,19.9
2017-12-28T09:30:00.815Z,19.9
2017-12-28T09:31:02.136Z,19.9
2017-12-28T09:32:04.033Z,19.8
2017-12-28T09:33:05.931Z,19.9
2017-12-28T09:34:07.827Z,19.8
2017-12-28T09:35:09.454Z,19.9
2017-12-28T09:36:10.771Z,19.9
2017-12-28T09:37:12.371Z,19.9
2017-12-28T09:38:14.267Z,19.9
2017-12-28T09:39:16.167Z,19.9
2017-12-28T09:40:17.512Z,19.9
2017-12-28T09:41:19.132Z,19.9
2017-12-28T09:42:21.032Z,19.9
2017-12-28T09:43:22.928Z,20
2017-12-28T09:44:24.555Z,19.9
2017-12-28T09:45:25.898Z,19.9
2017-12-28T09:46:27.796Z,19.9
2017-12-28T09:47:29.140Z,19.9
2017-12-28T09:48:30.761Z,19.9
2017-12-28T09:49:32.387Z,19.9
2017-12-28T09:50:33.709Z,19.9
2017-12-28T09:51:35.313Z,19.9
2017-12-28T09:52:36.351Z,20
2017-12-28T09:53:37.973Z,19.9
2017-12-28T09:54:39.020Z,19.8
2017-12-28T09:55:40.068Z,20
2017-12-28T09:56:41.689Z,19.9
2017-12-28T09:57:43.587Z,20
2017-12-28T09:58:45.207Z,20
2017-12-28T09:59:46.831Z,20
2017-12-28T10:00:48.452Z,20
2017-12-28T10:01:50.075Z,20
2017-12-28T10:02:51.694Z,19.9
2017-12-28T10:03:53.593Z,20
2017-12-28T10:04:55.214Z,20
2017-12-28T10:05:56.538Z,19.9
2017-12-28T10:06:58.436Z,19.9
2017-12-28T10:08:00.061Z,19.9
2017-12-28T10:09:01.956Z,20
2017-12-28T10:10:03.300Z,20
2017-12-28T10:11:04.620Z,20
2017-12-28T10:12:05.941Z,20
2017-12-28T10:13:07.260Z,20
2017-12-28T10:14:08.614Z,19.9
2017-12-28T10:15:09.678Z,20
2017-12-28T10:16:11.278Z,20
2017-12-28T10:17:12.623Z,19.9
2017-12-28T10:18:13.967Z,20
2017-12-28T10:19:15.569Z,20
2017-12-28T10:20:16.886Z,20
2017-12-28T10:21:18.207Z,20
2017-12-28T10:22:20.110Z,20
2017-12-28T10:23:22.007Z,20
2017-12-28T10:24:23.625Z,20
2017-12-28T10:25:24.969Z,20
2017-12-28T10:26:26.868Z,20
2017-12-28T10:27:28.764Z,19.9
2017-12-28T10:28:30.661Z,20
2017-12-28T10:29:32.558Z,20
2017-12-28T10:30:33.904Z,20
2017-12-28T10:31:34.952Z,20
2017-12-28T10:32:36.310Z,20
2017-12-28T10:33:37.327Z,20
2017-12-28T10:34:38.925Z,19.9
2017-12-28T10:35:40.247Z,20
2017-12-28T10:36:41.588Z,20
2017-12-28T10:37:42.904Z,20
2017-12-28T10:38:44.503Z,20
2017-12-28T10:39:45.825Z,20.1
2017-12-28T10:40:47.142Z,19.9
2017-12-28T10:41:48.764Z,19.9
2017-12-28T10:42:50.360Z,20
2017-12-28T10:43:51.977Z,20
2017-12-28T10:44:53.599Z,19.9
2017-12-28T10:45:55.225Z,19.9
2017-12-28T10:46:56.851Z,19.9
2017-12-28T10:47:58.751Z,19.9
2017-12-28T10:49:00.073Z,20
2017-12-28T10:50:01.673Z,19.9
2017-12-28T10:51:02.719Z,19.9
2017-12-28T10:52:04.353Z,20
2017-12-28T10:53:05.671Z,20.1
2017-12-28T10:54:07.013Z,19.9
2017-12-28T10:55:08.359Z,20
2017-12-28T10:56:09.681Z,19.9
2017-12-28T10:57:11.580Z,20
2017-12-28T10:58:12.900Z,20
2017-12-28T10:59:14.521Z,20
2017-12-28T11:00:16.142Z,20
2017-12-28T11:01:17.482Z,20
2017-12-28T11:02:19.405Z,20
2017-12-28T11:03:21.302Z,20
2017-12-28T11:04:22.653Z,20
2017-12-28T11:05:24.548Z,20
2017-12-28T11:06:25.887Z,19.9
2017-12-28T11:07:27.507Z,20
2017-12-28T11:08:29.406Z,19.9
2017-12-28T11:09:31.030Z,20
2017-12-28T11:10:32.923Z,20
2017-12-28T11:11:34.821Z,20
2017-12-28T11:12:36.144Z,20
2017-12-28T11:13:38.036Z,20
2017-12-28T11:14:39.704Z,20
2017-12-28T11:15:41.050Z,19.9
2017-12-28T11:16:42.647Z,20
2017-12-28T11:17:44.548Z,20
2017-12-28T11:18:46.446Z,20
2017-12-28T11:19:47.515Z,20
2017-12-28T11:20:49.136Z,20.1
2017-12-28T11:21:50.754Z,20
2017-12-28T11:22:52.097Z,20
2017-12-28T11:23:53.999Z,20
2017-12-28T11:24:55.616Z,20.1
2017-12-28T11:25:57.518Z,20
2017-12-28T11:26:58.845Z,20.1
2017-12-28T11:28:00.464Z,20
2017-12-28T11:29:02.365Z,20.1
2017-12-28T11:30:03.984Z,20
2017-12-28T11:31:05.308Z,20
2017-12-28T11:32:06.932Z,20
2017-12-28T11:33:08.551Z,20.1
2017-12-28T11:34:10.454Z,20
2017-12-28T11:35:12.073Z,20.1
2017-12-28T11:36:13.968Z,20
2017-12-28T11:37:15.589Z,20.1
2017-12-28T11:38:17.211Z,20
2017-12-28T11:39:18.530Z,20.1
2017-12-28T11:40:19.848Z,20.1
2017-12-28T11:41:21.745Z,20.1
2017-12-28T11:42:23.646Z,20.1
2017-12-28T11:43:25.543Z,20.1
2017-12-28T11:44:26.589Z,20.2
2017-12-28T11:45:28.265Z,20.1
2017-12-28T11:46:29.583Z,20.1
2017-12-28T11:47:31.529Z,20.1
2017-12-28T11:48:33.436Z,20
2017-12-28T11:49:35.330Z,20.1
2017-12-28T11:50:36.375Z,20.1
2017-12-28T11:51:37.997Z,20.1
2017-12-28T11:52:39.622Z,20.1
2017-12-28T11:53:40.943Z,20.1
2017-12-28T11:54:42.541Z,20.1
2017-12-28T11:55:44.162Z,20.1
2017-12-28T11:56:45.785Z,20.2
2017-12-28T11:57:47.405Z,20.1
2017-12-28T11:58:49.027Z,20.2
2017-12-28T11:59:50.628Z,20.1
2017-12-28T12:00:51.394Z,20.2
2017-12-28T12:01:52.440Z,20.1
2017-12-28T12:02:54.063Z,20.1
2017-12-28T12:03:55.387Z,20.2
2017-12-28T12:04:57.010Z,20.1
2017-12-28T12:05:58.912Z,20.2
2017-12-28T12:07:00.533Z,20.2
2017-12-28T12:08:02.159Z,20.2
2017-12-28T12:09:03.779Z,20.2
2017-12-28T12:10:05.403Z,20.2
2017-12-28T12:11:07.002Z,20.2
2017-12-28T12:12:08.323Z,20.2
2017-12-28T12:13:09.946Z,20.3
2017-12-28T12:14:11.567Z,20.3
2017-12-28T12:15:13.191Z,20.3
2017-12-28T12:16:14.810Z,20.2
2017-12-28T12:17:16.130Z,20.2
2017-12-28T12:18:17.735Z,20.2
2017-12-28T12:19:19.082Z,20.2
2017-12-28T12:20:20.980Z,20.1
2017-12-28T12:21:22.883Z,20.2
2017-12-28T12:22:24.785Z,20.2
2017-12-28T12:23:26.104Z,20.2
2017-12-28T12:24:28.004Z,20.2
2017-12-28T12:25:29.048Z,20.3
2017-12-28T12:26:30.665Z,20.2
2017-12-28T12:27:32.563Z,20.3
2017-12-28T12:28:34.194Z,20.2
2017-12-28T12:29:35.817Z,20.2
2017-12-28T12:30:37.143Z,20.3
2017-12-28T12:31:38.766Z,20.2
2017-12-28T12:32:40.109Z,20.2
2017-12-28T12:33:41.727Z,20.2
2017-12-28T12:34:43.047Z,20.3
2017-12-28T12:35:44.368Z,20.2
2017-12-28T12:36:45.722Z,20.2
2017-12-28T12:37:47.355Z,20.2
2017-12-28T12:38:48.678Z,20.2
2017-12-28T12:39:50.041Z,20.3
2017-12-28T12:40:51.660Z,20.3
2017-12-28T12:41:53.558Z,20.3
2017-12-28T12:42:54.884Z,20.3
2017-12-28T12:43:56.230Z,20.2
2017-12-28T12:44:57.850Z,20.2
2017-12-28T12:45:58.904Z,20.2
2017-12-28T12:47:00.243Z,20.3
2017-12-28T12:48:01.288Z,20.2
2017-12-28T12:49:02.909Z,20.2
2017-12-28T12:50:04.808Z,20.2
2017-12-28T12:51:06.136Z,20.2
2017-12-28T12:52:07.455Z,20.3
2017-12-28T12:53:08.772Z,20.3
2017-12-28T12:54:10.455Z,20.2
2017-12-28T12:55:11.497Z,20.2
2017-12-28T12:56:12.823Z,20.2
2017-12-28T12:57:14.545Z,20.3
2017-12-28T12:58:16.143Z,20.3
2017-12-28T12:59:17.766Z,20.3
2017-12-28T13:00:19.663Z,20.2
2017-12-28T13:01:21.282Z,20.2
2017-12-28T13:02:22.604Z,20.3
2017-12-28T13:03:24.501Z,20.3
2017-12-28T13:04:25.547Z,20.2
2017-12-28T13:05:27.172Z,20.2
2017-12-28T13:06:28.769Z,20.3
2017-12-28T13:07:30.113Z,20.2
2017-12-28T13:08:32.009Z,20.3
2017-12-28T13:09:33.075Z,20.3
2017-12-28T13:10:34.119Z,20.2
2017-12-28T13:11:35.743Z,20.3
2017-12-28T13:12:37.357Z,20.3
2017-12-28T13:13:38.403Z,20.3
2017-12-28T13:14:40.024Z,20.2
2017-12-28T13:15:41.066Z,20.3
2017-12-28T13:16:42.687Z,20.2
2017-12-28T13:17:44.587Z,20.3
2017-12-28T13:18:46.490Z,20.3
2017-12-28T13:19:47.807Z,20.3
2017-12-28T13:20:49.429Z,20.2
2017-12-28T13:21:50.753Z,20.2
2017-12-28T13:22:52.377Z,20.2
2017-12-28T13:23:53.975Z,20.3
2017-12-28T13:24:55.317Z,20.2
2017-12-28T13:25:56.938Z,20.2
2017-12-28T13:26:58.533Z,20.3
2017-12-28T13:27:59.856Z,20.3
2017-12-28T13:29:01.475Z,20.3
2017-12-28T13:30:02.521Z,20.3
2017-12-28T13:31:03.864Z,20.2
2017-12-28T13:32:05.467Z,20.2
2017-12-28T13:33:07.412Z,20.2
2017-12-28T13:34:09.064Z,20.2
2017-12-28T13:35:10.129Z,20.2
2017-12-28T13:36:11.752Z,20.2
2017-12-28T13:37:13.650Z,20.2
2017-12-28T13:38:15.270Z,20.3
2017-12-28T13:39:16.867Z,20.3
2017-12-28T13:40:18.760Z,20.2
2017-12-28T13:41:20.657Z,20.2
2017-12-28T13:42:22.556Z,20.3
2017-12-28T13:43:24.173Z,20.3
2017-12-28T13:44:26.067Z,20.3